ADDS METAR Data INFO
IDs: Format: Raw Decoded Include TAF

Data at: 1748 UTC 21 Oct 2017

K21D 211732Z AUTO 17013KT 10SM OVC012 16/15 A2970 RMK AO2
K21D 211711Z AUTO 16012G17KT 130V190 10SM OVC010 16/15 A2970 RMK AO2
K21D 211651Z AUTO 17014G21KT 10SM OVC010 16/15 A2971 RMK AO2 LTG DSNT E
K21D 211631Z AUTO 17012G20KT 10SM OVC010 16/15 A2972 RMK AO2
K21D 211612Z AUTO 16014G24KT 10SM -RA BKN010 OVC014 16/15 A2972 RMK AO2 LTG DSNT E
K21D 211552Z AUTO 16015G22KT 10SM RA BKN008 OVC014 16/15 A2971 RMK AO2 P0007
K21D 211531Z AUTO 17016G23KT 7SM RA OVC008 15/15 A2971 RMK AO2 P0006
K21D 211512Z AUTO 16012G23KT 7SM RA OVC008 16/15 A2971 RMK AO2 LTG DSNT S AND W P0003
K21D 211451Z AUTO 18013G18KT 5SM RA BKN010 OVC016 15/15 A2972 RMK AO2 LTG DSNT S P0008
K21D 211431Z AUTO 16012G20KT 7SM -RA BKN013 OVC019 15/14 A2971 RMK AO2 LTG DSNT SW P0001
K21D 211412Z AUTO 16013G19KT 10SM DZ BKN013 OVC020 15/14 A2971 RMK AO2
K21D 211351Z AUTO 15013G18KT 10SM OVC016 15/14 A2972 RMK AO2 LTG DSNT S AND SW
K21D 211331Z AUTO 15012KT 10SM BKN014 OVC020 15/13 A2972 RMK AO2 LTG DSNT SE W AND NW
K21D 211311Z AUTO 14007KT 10SM VCTS SCT010 OVC020 15/14 A2972 RMK AO2 LTG DSNT SE W AND NW
K21D 211252Z AUTO 12007KT 10SM -RA SCT010 BKN018 OVC060 15/14 A2972 RMK AO2 LTG DSNT W THRU N P0015
K21D 211231Z AUTO 16009G15KT 5SM RA SCT010 BKN025 OVC060 15/14 A2972 RMK AO2 LTG DSNT SW THRU NE P0013
K21D 211212Z AUTO 17015G23KT 7SM RA SCT021 OVC028 16/13 A2974 RMK AO2 LTG DSNT SE THRU W P0002
K21D 211151Z AUTO 16014G20KT 10SM OVC032 17/12 A2972 RMK AO2 LTG DSNT SE AND S
K21D 211132Z AUTO 16012G17KT 10SM BKN032 BKN040 BKN070 17/12 A2971 RMK AO2 LTG DSNT SE AND S
K21D 211112Z AUTO 15013G17KT 10SM BKN034 BKN039 OVC070 17/12 A2971 RMK AO2 LTG DSNT S
K21D 211051Z AUTO 15009KT 10SM BKN036 BKN043 OVC090 17/11 A2971 RMK AO2
K21D 211031Z AUTO 15013G18KT 10SM SCT038 BKN060 OVC070 17/11 A2971 RMK AO2 LTG DSNT S
K21D 211011Z AUTO 16011G16KT 10SM SCT040 BKN060 17/11 A2972 RMK AO2
K21D 210951Z AUTO 16010KT 10SM CLR 17/11 A2972 RMK AO2
K21D 210931Z AUTO 15012G17KT 10SM CLR 17/11 A2972 RMK AO2
K21D 210912Z AUTO 16015G20KT 10SM CLR 17/11 A2972 RMK AO2
K21D 210852Z AUTO 16013G18KT 10SM CLR 17/11 A2972 RMK AO2
K21D 210831Z AUTO 16014G19KT 10SM SCT070 17/11 A2973 RMK AO2
K21D 210811Z AUTO 16015G22KT 10SM SCT070 17/11 A2973 RMK AO2
K21D 210752Z AUTO 17013G17KT 10SM SCT070 17/11 A2974 RMK AO2
K21D 210731Z AUTO 17017G24KT 10SM SCT070 17/11 A2975 RMK AO2
K21D 210712Z AUTO 16015G23KT 10SM CLR 17/11 A2975 RMK AO2
K21D 210651Z AUTO 16015G18KT 10SM CLR 17/11 A2975 RMK AO2
K21D 210632Z AUTO 17011G17KT 10SM CLR 17/11 A2976 RMK AO2
K21D 210612Z AUTO 17010G17KT 10SM CLR 17/11 A2976 RMK AO2
K21D 210551Z AUTO 16012G16KT 10SM CLR 17/12 A2976 RMK AO2
K21D 210531Z AUTO 17014G19KT 10SM -RA SCT043 SCT060 BKN110 17/12 A2976 RMK AO2
K21D 210511Z AUTO 17013G17KT 10SM SCT100 BKN120 18/11 A2977 RMK AO2
K21D 210452Z AUTO 17013G17KT 10SM SCT120 18/10 A2976 RMK AO2
K21D 210431Z AUTO 18012G19KT 10SM SCT120 18/10 A2976 RMK AO2
K21D 210411Z AUTO 17014G21KT 10SM SCT110 18/10 A2976 RMK AO2
K21D 210351Z AUTO 17015G22KT 10SM CLR 18/10 A2976 RMK AO2
K21D 210331Z AUTO 17015G22KT 10SM CLR 18/10 A2975 RMK AO2
K21D 210311Z AUTO 17014G18KT 10SM CLR 18/10 A2975 RMK AO2
K21D 210252Z AUTO 17018G22KT 10SM CLR 18/09 A2975 RMK AO2
K21D 210231Z AUTO 17015G22KT 10SM CLR 19/09 A2975 RMK AO2
K21D 210212Z AUTO 17015G21KT 10SM CLR 19/08 A2976 RMK AO2
K21D 210152Z AUTO 17015G19KT 10SM CLR 19/08 A2976 RMK AO2
K21D 210131Z AUTO 17014G21KT 10SM CLR 20/08 A2976 RMK AO2
K21D 210111Z AUTO 16012G17KT 10SM CLR 20/07 A2976 RMK AO2
K21D 210052Z AUTO 16014KT 10SM CLR 20/07 A2976 RMK AO2
K21D 210031Z AUTO 16012G17KT 10SM CLR 20/07 A2976 RMK AO2
K21D 210012Z AUTO 16011KT 10SM CLR 20/06 A2975 RMK AO2
K21D 202351Z AUTO 16010G19KT 10SM CLR 20/06 A2975 RMK AO2
K21D 202331Z AUTO 16014G19KT 10SM CLR 21/06 A2975 RMK AO2
K21D 202311Z AUTO 15010KT 10SM CLR 21/06 A2975 RMK AO2
K21D 202252Z AUTO 15011G15KT 10SM CLR 22/07 A2975 RMK AO2
K21D 202231Z AUTO 16013G18KT 10SM CLR 23/07 A2975 RMK AO2
K21D 202211Z AUTO 15015G20KT 10SM CLR 23/08 A2975 RMK AO2
K21D 202152Z AUTO 14011G16KT 7SM CLR 22/09 A2976 RMK AO2
K21D 202131Z AUTO 16011G23KT 7SM CLR 23/10 A2977 RMK AO2
K21D 202111Z AUTO 17013G21KT 5SM HZ CLR 23/08 A2978 RMK AO2
K21D 202052Z AUTO 17015G19KT 7SM CLR 24/10 A2978 RMK AO2
K21D 202032Z AUTO 17013G20KT 7SM CLR 24/10 A2979 RMK AO2
K21D 202011Z AUTO 16010KT 10SM CLR 24/11 A2979 RMK AO2
K21D 201951Z AUTO 17014G22KT 7SM CLR 24/11 A2980 RMK AO2
K21D 201932Z AUTO 16018G24KT 140V200 7SM CLR 24/11 A2980 RMK AO2
K21D 201911Z AUTO 18013G24KT 7SM CLR 24/10 A2982 RMK AO2
K21D 201851Z AUTO 19013G23KT 7SM CLR 24/10 A2982 RMK AO2
K21D 201831Z AUTO 18013G24KT 10SM CLR 24/11 A2983 RMK AO2
K21D 201811Z AUTO 18019G23KT 7SM CLR 23/11 A2984 RMK AO2
K21D 201751Z AUTO 18020G24KT 10SM CLR 23/12 A2985 RMK AO2
K21D 201731Z AUTO 19014G22KT 10SM CLR 23/11 A2986 RMK AO2
K21D 201712Z AUTO 19016G21KT 10SM CLR 22/11 A2987 RMK AO2
K21D 201652Z AUTO 18014G19KT 10SM CLR 21/11 A2987 RMK AO2
K21D 201631Z AUTO 18010G18KT 10SM CLR 21/12 A2989 RMK AO2
K21D 201611Z AUTO 19012G16KT 10SM CLR 20/11 A2990 RMK AO2
K21D 201552Z AUTO 19016G20KT 10SM CLR 19/11 A2990 RMK AO2
K21D 201531Z AUTO 19013KT 10SM CLR 18/11 A2990 RMK AO2
K21D 201512Z AUTO 18011G16KT 10SM CLR 17/11 A2991 RMK AO2
K21D 201451Z AUTO 17010KT 10SM CLR 16/11 A2991 RMK AO2
K21D 201431Z AUTO 18010KT 10SM CLR 16/11 A2992 RMK AO2
K21D 201411Z AUTO 17011KT 10SM CLR 15/11 A2992 RMK AO2
K21D 201351Z AUTO 17009G15KT 10SM CLR 14/10 A2992 RMK AO2
K21D 201332Z AUTO 18009KT 10SM CLR 13/10 A2992 RMK AO2
K21D 201311Z AUTO 18010KT 10SM CLR 13/10 A2992 RMK AO2
K21D 201252Z AUTO 19007KT 10SM CLR 12/10 A2991 RMK AO2
K21D 201232Z AUTO 18005KT 10SM CLR 12/10 A2991 RMK AO2
K21D 201211Z AUTO 18006KT 10SM CLR 12/10 A2991 RMK AO2
K21D 201151Z AUTO 18006KT 10SM CLR 12/10 A2991 RMK AO2
K21D 201131Z AUTO 19006KT 10SM CLR 12/10 A2991 RMK AO2
K21D 201112Z AUTO 17006KT 10SM CLR 12/10 A2991 RMK AO2
K21D 201051Z AUTO 18007KT 10SM CLR 12/10 A2991 RMK AO2
K21D 201031Z AUTO 18006KT 10SM CLR 12/10 A2991 RMK AO2
K21D 201011Z AUTO 18006KT 10SM CLR 12/10 A2991 RMK AO2
K21D 200952Z AUTO 17006KT 10SM CLR 12/10 A2992 RMK AO2
K21D 200931Z AUTO 17006KT 10SM CLR 12/09 A2992 RMK AO2
K21D 200912Z AUTO 17006KT 10SM CLR 12/09 A2992 RMK AO2
K21D 200851Z AUTO 18007KT 10SM CLR 12/09 A2992 RMK AO2
K21D 200831Z AUTO 18006KT 10SM CLR 12/09 A2992 RMK AO2
K21D 200812Z AUTO 18006KT 10SM CLR 12/09 A2992 RMK AO2
K21D 200751Z AUTO 18006KT 10SM CLR 13/08 A2993 RMK AO2
K21D 200731Z AUTO 18006KT 10SM CLR 13/08 A2993 RMK AO2
K21D 200711Z AUTO 18006KT 10SM CLR 13/08 A2993 RMK AO2
K21D 200652Z AUTO 18005KT 10SM CLR 13/08 A2993 RMK AO2
K21D 200632Z AUTO 18007KT 10SM CLR 13/07 A2993 RMK AO2
K21D 200611Z AUTO 18007KT 10SM CLR 13/07 A2993 RMK AO2
K21D 200551Z AUTO 17008KT 10SM CLR 13/06 A2994 RMK AO2